Aviation Digital Data Service (ADDS)

Output produced by METARs form (0149 UTC 20 July 2019)
found at http://www.aviationweather.gov/metar/data/
 
LFLC 200130Z AUTO 19011KT CAVOK 21/11 Q1013 NOSIG
TAF LFLC 192000Z 1921/2021 VRB03KT CAVOK 
     BECMG 2001/2003 18012KT 
     PROB30 
     TEMPO 2007/2021 VRB20G30KT 4000 TSRA BKN090CB